createdAt,value
2023-01-18T05:00:28.414Z,4.50
2023-01-18T05:11:33.181Z,4.90
2023-01-18T05:22:33.047Z,3.30
2023-01-18T05:33:32.927Z,3.30
2023-01-18T05:44:32.813Z,3.20
2023-01-18T05:55:32.689Z,2.90
2023-01-18T06:06:34.606Z,2.80
2023-01-18T06:17:32.451Z,3.00
2023-01-18T06:28:32.324Z,3.40
2023-01-18T06:39:32.226Z,4.30
2023-01-18T06:50:32.115Z,3.40
2023-01-18T07:01:32.111Z,4.00
2023-01-18T07:12:31.852Z,3.70
2023-01-18T07:23:31.755Z,3.50
2023-01-18T07:34:31.603Z,3.60
2023-01-18T07:45:31.503Z,4.00
2023-01-18T07:56:31.356Z,5.30
2023-01-18T08:07:31.264Z,3.70
2023-01-18T08:18:31.123Z,4.10
2023-01-18T08:29:30.991Z,3.00
2023-01-18T08:40:30.866Z,3.60
2023-01-18T08:51:30.750Z,2.40
2023-01-18T09:02:30.685Z,2.30
2023-01-18T09:13:30.509Z,3.80
2023-01-18T09:24:30.374Z,4.30
2023-01-18T09:35:30.255Z,5.90
2023-01-18T09:46:30.220Z,4.40
2023-01-18T09:57:30.013Z,4.00
2023-01-18T10:08:29.946Z,4.20
2023-01-18T10:19:29.766Z,3.70
2023-01-18T10:30:29.669Z,5.20
2023-01-18T10:41:29.518Z,3.50
2023-01-18T10:52:29.432Z,4.80
2023-01-18T11:03:29.277Z,3.50
2023-01-18T11:14:29.159Z,3.80
2023-01-18T11:25:29.039Z,6.60
2023-01-18T11:36:28.926Z,5.30
2023-01-18T11:47:28.818Z,3.60
2023-01-18T11:58:28.691Z,5.00
2023-01-18T12:09:28.561Z,3.60
2023-01-18T12:20:28.446Z,3.40
2023-01-18T12:31:28.308Z,4.10
2023-01-18T12:42:28.182Z,5.40
2023-01-18T12:53:28.065Z,4.60
2023-01-18T13:04:27.947Z,4.40
2023-01-18T13:15:27.882Z,5.70
2023-01-18T13:26:27.693Z,5.60
2023-01-18T13:37:27.567Z,5.30
2023-01-18T13:48:27.442Z,4.70
2023-01-18T13:59:27.318Z,5.30
2023-01-18T14:10:27.199Z,5.10
2023-01-18T14:21:27.093Z,4.70
2023-01-18T14:32:26.990Z,5.80
2023-01-18T14:43:26.887Z,4.50
2023-01-18T14:54:26.744Z,4.00
2023-01-18T15:05:26.596Z,4.90
2023-01-18T15:16:26.541Z,5.90
2023-01-18T15:27:26.388Z,4.20
2023-01-18T15:38:26.227Z,5.00
2023-01-18T15:49:26.113Z,5.30
2023-01-18T16:00:25.982Z,5.30
2023-01-18T16:11:25.858Z,4.30
2023-01-18T16:22:25.746Z,4.10
2023-01-18T16:33:25.618Z,3.90
2023-01-18T16:44:25.509Z,4.30
2023-01-18T16:55:25.409Z,3.50
2023-01-18T17:06:25.246Z,3.40
2023-01-18T17:17:25.125Z,5.10
2023-01-18T17:28:25.004Z,5.70
2023-01-18T17:39:37.056Z,5.40
2023-01-18T17:50:24.824Z,6.00
2023-01-18T18:01:24.830Z,5.70
2023-01-18T18:12:24.505Z,6.30
2023-01-18T18:23:24.384Z,5.90
2023-01-18T18:34:24.260Z,7.10
2023-01-18T18:45:24.137Z,6.70
2023-01-18T18:56:24.035Z,9.10
2023-01-18T19:07:23.907Z,8.90
2023-01-18T19:18:24.795Z,7.40
2023-01-18T19:29:23.658Z,7.70
2023-01-18T19:40:23.532Z,8.50
2023-01-18T19:51:23.420Z,7.70
2023-01-18T20:02:24.530Z,8.30
2023-01-18T20:13:23.182Z,7.80
2023-01-18T20:24:23.049Z,9.10
2023-01-18T20:35:22.986Z,8.00
2023-01-18T20:46:22.818Z,9.70
2023-01-18T20:57:23.690Z,9.10
2023-01-18T21:08:22.574Z,6.60
2023-01-18T21:19:22.455Z,5.60
2023-01-18T21:30:22.341Z,5.20
2023-01-18T21:41:22.250Z,4.80
2023-01-18T21:52:22.094Z,6.00
